Strona główna
METAR-TAF:

METAR-TAF

Lotnisko :

Port lotniczy Bukareszt-Otopeni

Bukareszt, Rumunia

Szerokość geograficzna: 44-33N, Długość geograficzna: 026-06E, wysokość: 95 m

Aktualna obserwacja pogody

Raport powstał 48 minut temu, godzina 02:00 UTC
Wiatr 4 kt od zachodnio-północny zachód
Temperatura 8°C
Wilgotność 100%
Ciśnienie 1007 hPa
Widzialność 10 km lub więcej
Brak chmur poniżej 1500 m i brak chmur cumulonimbus

METAR: LROP 040200Z 29004KT CAVOK 08/08 Q1007 NOSIG

czas: 05:48 (02:48 UTC)

Prognoza

Raport powstał 3 godziny i 48 minut temu, godzina 23:00 UTC
Prognoza ważna od 04 godzina 00 UTC do 05 godzina 00 UTC
Wiatr 3 kt z kierunków zmiennych
Widzialność 10 km lub więcej
Brak chmur poniżej 1500 m i brak chmur cumulonimbus
Przejściowo
od 04 godzina 09 UTC do 04 godzina 15 UTC
Wiatr 13 kt od zachód

TAF: LROP 032300Z 0400/0500 VRB03KT CAVOK TEMPO 0409/0415 26013KT

Obserwacja i prognoza pogody dla ponad 4000 lotnisk (raport METAR i TAF).

Dostępne stacje oznaczono żółtymi i czerwonymi punktami na mapie.

Najedź kursorem aby zobaczyć nazwę stacji.

Kliknij aby zobaczyć obserwacje i prognozy pogody.

Aby zmienić mapę: kliknij na zielony przycisk z czarnym krzyżykiem, aby powiększyć; na zielony przycisk z myślnikiem, aby pomniejszyć; na zielone strzałki, aby przejść do map sąsiednich.


METAR-TAF: